sensor_id;sensor_type;location;lat;lon;timestamp;P1;durP1;ratioP1;P2;durP2;ratioP2
4210;SDS011;2119;48.828;12.396;2023-03-23T00:02:40;7.10;;;5.80;;
4210;SDS011;2119;48.828;12.396;2023-03-23T00:07:40;6.50;;;5.90;;
4210;SDS011;2119;48.828;12.396;2023-03-23T00:12:45;6.23;;;5.73;;
4210;SDS011;2119;48.828;12.396;2023-03-23T00:17:50;8.23;;;6.97;;
4210;SDS011;2119;48.828;12.396;2023-03-23T00:22:51;6.40;;;5.80;;
4210;SDS011;2119;48.828;12.396;2023-03-23T00:27:51;6.50;;;5.90;;
4210;SDS011;2119;48.828;12.396;2023-03-23T00:32:51;6.78;;;6.20;;
4210;SDS011;2119;48.828;12.396;2023-03-23T00:37:51;6.23;;;5.63;;
4210;SDS011;2119;48.828;12.396;2023-03-23T00:42:51;5.75;;;5.20;;
4210;SDS011;2119;48.828;12.396;2023-03-23T00:47:52;5.60;;;5.20;;
4210;SDS011;2119;48.828;12.396;2023-03-23T00:52:53;6.23;;;5.50;;
4210;SDS011;2119;48.828;12.396;2023-03-23T00:57:55;4.80;;;4.40;;
4210;SDS011;2119;48.828;12.396;2023-03-23T01:02:56;5.33;;;4.93;;
4210;SDS011;2119;48.828;12.396;2023-03-23T01:07:59;5.57;;;5.07;;
4210;SDS011;2119;48.828;12.396;2023-03-23T01:13:00;6.03;;;5.07;;
4210;SDS011;2119;48.828;12.396;2023-03-23T01:18:00;5.97;;;5.30;;
4210;SDS011;2119;48.828;12.396;2023-03-23T01:23:01;6.38;;;5.78;;
4210;SDS011;2119;48.828;12.396;2023-03-23T01:28:01;5.57;;;5.07;;
4210;SDS011;2119;48.828;12.396;2023-03-23T01:33:01;5.83;;;5.37;;
4210;SDS011;2119;48.828;12.396;2023-03-23T01:38:01;5.90;;;5.30;;
4210;SDS011;2119;48.828;12.396;2023-03-23T01:43:01;6.90;;;5.40;;
4210;SDS011;2119;48.828;12.396;2023-03-23T01:48:07;6.50;;;5.90;;
4210;SDS011;2119;48.828;12.396;2023-03-23T01:53:08;6.60;;;5.90;;
4210;SDS011;2119;48.828;12.396;2023-03-23T01:58:10;7.60;;;5.90;;
4210;SDS011;2119;48.828;12.396;2023-03-23T02:03:11;7.23;;;6.53;;
4210;SDS011;2119;48.828;12.396;2023-03-23T02:08:13;6.60;;;6.10;;
4210;SDS011;2119;48.828;12.396;2023-03-23T02:13:14;6.13;;;5.63;;
4210;SDS011;2119;48.828;12.396;2023-03-23T02:33:54;6.23;;;5.17;;
4210;SDS011;2119;48.828;12.396;2023-03-23T02:44:00;6.00;;;5.37;;
4210;SDS011;2119;48.828;12.396;2023-03-23T02:49:02;6.33;;;5.73;;
4210;SDS011;2119;48.828;12.396;2023-03-23T02:54:04;7.27;;;6.13;;
4210;SDS011;2119;48.828;12.396;2023-03-23T02:59:05;7.03;;;6.40;;
4210;SDS011;2119;48.828;12.396;2023-03-23T03:04:13;7.57;;;6.87;;
4210;SDS011;2119;48.828;12.396;2023-03-23T03:09:17;7.00;;;6.43;;
4210;SDS011;2119;48.828;12.396;2023-03-23T03:14:20;6.70;;;6.00;;
4210;SDS011;2119;48.828;12.396;2023-03-23T03:19:27;6.60;;;5.97;;
4210;SDS011;2119;48.828;12.396;2023-03-23T03:24:29;8.00;;;6.03;;
4210;SDS011;2119;48.828;12.396;2023-03-23T03:29:30;6.37;;;5.87;;
4210;SDS011;2119;48.828;12.396;2023-03-23T03:34:33;6.03;;;5.53;;
4210;SDS011;2119;48.828;12.396;2023-03-23T03:39:36;5.90;;;5.40;;
4210;SDS011;2119;48.828;12.396;2023-03-23T03:44:37;6.47;;;5.87;;
4210;SDS011;2119;48.828;12.396;2023-03-23T03:49:37;8.23;;;6.10;;
4210;SDS011;2119;48.828;12.396;2023-03-23T03:54:37;5.80;;;5.30;;
4210;SDS011;2119;48.828;12.396;2023-03-23T03:59:37;5.60;;;5.10;;
4210;SDS011;2119;48.828;12.396;2023-03-23T04:04:38;6.53;;;6.03;;
4210;SDS011;2119;48.828;12.396;2023-03-23T04:09:38;8.85;;;5.25;;
4210;SDS011;2119;48.828;12.396;2023-03-23T04:14:38;6.27;;;5.63;;
4210;SDS011;2119;48.828;12.396;2023-03-23T04:19:38;6.57;;;5.87;;
4210;SDS011;2119;48.828;12.396;2023-03-23T04:24:38;7.10;;;6.40;;
4210;SDS011;2119;48.828;12.396;2023-03-23T04:29:39;7.13;;;6.43;;
4210;SDS011;2119;48.828;12.396;2023-03-23T04:34:39;6.10;;;5.50;;
4210;SDS011;2119;48.828;12.396;2023-03-23T04:39:40;7.63;;;6.57;;
4210;SDS011;2119;48.828;12.396;2023-03-23T04:44:41;6.80;;;6.10;;
4210;SDS011;2119;48.828;12.396;2023-03-23T04:49:43;6.20;;;5.60;;
4210;SDS011;2119;48.828;12.396;2023-03-23T04:54:43;6.93;;;5.18;;
4210;SDS011;2119;48.828;12.396;2023-03-23T04:59:44;21.17;;;12.20;;
4210;SDS011;2119;48.828;12.396;2023-03-23T05:04:44;9.83;;;8.67;;
4210;SDS011;2119;48.828;12.396;2023-03-23T05:09:48;9.07;;;7.07;;
4210;SDS011;2119;48.828;12.396;2023-03-23T05:14:48;8.47;;;7.67;;
4210;SDS011;2119;48.828;12.396;2023-03-23T05:19:49;11.10;;;8.73;;
4210;SDS011;2119;48.828;12.396;2023-03-23T05:24:49;8.87;;;7.43;;
4210;SDS011;2119;48.828;12.396;2023-03-23T05:29:51;9.90;;;8.07;;
4210;SDS011;2119;48.828;12.396;2023-03-23T05:34:51;8.33;;;7.50;;
4210;SDS011;2119;48.828;12.396;2023-03-23T05:39:52;9.90;;;7.40;;
4210;SDS011;2119;48.828;12.396;2023-03-23T05:44:53;7.30;;;6.70;;
4210;SDS011;2119;48.828;12.396;2023-03-23T05:49:53;9.57;;;8.00;;
4210;SDS011;2119;48.828;12.396;2023-03-23T05:54:53;11.65;;;9.05;;
4210;SDS011;2119;48.828;12.396;2023-03-23T05:59:54;11.37;;;8.50;;
4210;SDS011;2119;48.828;12.396;2023-03-23T06:04:54;16.77;;;9.90;;
4210;SDS011;2119;48.828;12.396;2023-03-23T06:09:57;12.00;;;8.73;;
4210;SDS011;2119;48.828;12.396;2023-03-23T06:14:57;12.13;;;9.30;;
4210;SDS011;2119;48.828;12.396;2023-03-23T06:19:58;10.40;;;6.97;;
4210;SDS011;2119;48.828;12.396;2023-03-23T06:24:58;12.20;;;8.17;;
4210;SDS011;2119;48.828;12.396;2023-03-23T06:29:58;9.48;;;8.60;;
4210;SDS011;2119;48.828;12.396;2023-03-23T06:34:58;12.70;;;9.50;;
4210;SDS011;2119;48.828;12.396;2023-03-23T06:40:00;9.80;;;8.50;;
4210;SDS011;2119;48.828;12.396;2023-03-23T06:45:00;10.83;;;9.57;;
4210;SDS011;2119;48.828;12.396;2023-03-23T06:50:01;18.43;;;9.37;;
4210;SDS011;2119;48.828;12.396;2023-03-23T06:55:01;8.07;;;7.03;;
4210;SDS011;2119;48.828;12.396;2023-03-23T07:00:02;10.67;;;7.87;;
4210;SDS011;2119;48.828;12.396;2023-03-23T07:05:05;11.20;;;7.83;;
4210;SDS011;2119;48.828;12.396;2023-03-23T07:10:06;10.20;;;8.17;;
4210;SDS011;2119;48.828;12.396;2023-03-23T07:15:07;7.27;;;6.60;;
4210;SDS011;2119;48.828;12.396;2023-03-23T07:20:10;8.70;;;6.33;;
4210;SDS011;2119;48.828;12.396;2023-03-23T07:25:11;9.00;;;7.50;;
4210;SDS011;2119;48.828;12.396;2023-03-23T07:30:11;11.60;;;9.30;;
4210;SDS011;2119;48.828;12.396;2023-03-23T07:35:12;9.70;;;8.70;;
4210;SDS011;2119;48.828;12.396;2023-03-23T07:40:12;12.43;;;9.73;;
4210;SDS011;2119;48.828;12.396;2023-03-23T07:45:14;9.97;;;8.93;;
4210;SDS011;2119;48.828;12.396;2023-03-23T07:50:15;9.67;;;8.67;;
4210;SDS011;2119;48.828;12.396;2023-03-23T07:55:16;10.40;;;9.30;;
4210;SDS011;2119;48.828;12.396;2023-03-23T08:00:19;10.10;;;9.00;;
4210;SDS011;2119;48.828;12.396;2023-03-23T08:05:20;11.70;;;9.13;;
4210;SDS011;2119;48.828;12.396;2023-03-23T08:10:21;12.00;;;8.97;;
4210;SDS011;2119;48.828;12.396;2023-03-23T08:15:24;9.50;;;8.50;;
4210;SDS011;2119;48.828;12.396;2023-03-23T08:20:24;11.13;;;9.90;;
4210;SDS011;2119;48.828;12.396;2023-03-23T08:25:25;10.40;;;9.30;;
4210;SDS011;2119;48.828;12.396;2023-03-23T08:30:26;15.07;;;9.33;;
4210;SDS011;2119;48.828;12.396;2023-03-23T08:35:28;13.83;;;8.93;;
4210;SDS011;2119;48.828;12.396;2023-03-23T08:40:29;12.23;;;8.53;;
4210;SDS011;2119;48.828;12.396;2023-03-23T08:45:29;11.38;;;8.65;;
4210;SDS011;2119;48.828;12.396;2023-03-23T08:50:30;12.80;;;10.60;;
4210;SDS011;2119;48.828;12.396;2023-03-23T08:55:30;11.73;;;10.03;;
4210;SDS011;2119;48.828;12.396;2023-03-23T09:00:31;12.77;;;11.13;;
4210;SDS011;2119;48.828;12.396;2023-03-23T09:05:32;11.23;;;10.10;;
4210;SDS011;2119;48.828;12.396;2023-03-23T09:10:33;14.67;;;11.00;;
4210;SDS011;2119;48.828;12.396;2023-03-23T09:15:33;13.90;;;10.30;;
4210;SDS011;2119;48.828;12.396;2023-03-23T09:20:33;10.25;;;9.32;;
4210;SDS011;2119;48.828;12.396;2023-03-23T09:25:34;9.83;;;8.87;;
4210;SDS011;2119;48.828;12.396;2023-03-23T09:30:34;10.88;;;9.77;;
4210;SDS011;2119;48.828;12.396;2023-03-23T09:35:36;10.27;;;9.23;;
4210;SDS011;2119;48.828;12.396;2023-03-23T09:50:46;10.57;;;8.07;;
4210;SDS011;2119;48.828;12.396;2023-03-23T09:55:48;8.70;;;7.53;;
4210;SDS011;2119;48.828;12.396;2023-03-23T10:01:02;8.87;;;7.80;;
4210;SDS011;2119;48.828;12.396;2023-03-23T10:06:04;11.37;;;8.00;;
4210;SDS011;2119;48.828;12.396;2023-03-23T10:16:18;7.97;;;7.00;;
4210;SDS011;2119;48.828;12.396;2023-03-23T10:21:20;6.93;;;6.33;;
4210;SDS011;2119;48.828;12.396;2023-03-23T10:26:25;8.00;;;7.20;;
4210;SDS011;2119;48.828;12.396;2023-03-23T10:31:32;16.33;;;8.47;;
4210;SDS011;2119;48.828;12.396;2023-03-23T10:36:35;10.53;;;6.00;;
4210;SDS011;2119;48.828;12.396;2023-03-23T10:41:37;6.50;;;5.63;;
4210;SDS011;2119;48.828;12.396;2023-03-23T10:51:41;3.80;;;3.50;;
4210;SDS011;2119;48.828;12.396;2023-03-23T10:56:44;5.37;;;3.10;;
4210;SDS011;2119;48.828;12.396;2023-03-23T11:01:45;4.60;;;4.20;;
4210;SDS011;2119;48.828;12.396;2023-03-23T11:06:49;3.80;;;3.23;;
4210;SDS011;2119;48.828;12.396;2023-03-23T11:11:52;4.30;;;3.90;;
4210;SDS011;2119;48.828;12.396;2023-03-23T11:16:53;4.73;;;4.33;;
4210;SDS011;2119;48.828;12.396;2023-03-23T11:21:57;5.40;;;4.90;;
4210;SDS011;2119;48.828;12.396;2023-03-23T11:26:59;3.30;;;3.07;;
4210;SDS011;2119;48.828;12.396;2023-03-23T11:37:01;3.58;;;3.30;;
4210;SDS011;2119;48.828;12.396;2023-03-23T11:42:12;3.90;;;3.60;;
4210;SDS011;2119;48.828;12.396;2023-03-23T11:47:27;4.20;;;3.10;;
4210;SDS011;2119;48.828;12.396;2023-03-23T11:57:48;3.07;;;2.77;;
4210;SDS011;2119;48.828;12.396;2023-03-23T12:08:12;8.13;;;2.73;;
4210;SDS011;2119;48.828;12.396;2023-03-23T12:18:23;2.73;;;2.50;;
4210;SDS011;2119;48.828;12.396;2023-03-23T12:29:12;2.60;;;2.40;;
4210;SDS011;2119;48.828;12.396;2023-03-23T12:39:29;2.20;;;2.00;;
4210;SDS011;2119;48.828;12.396;2023-03-23T12:50:00;1.90;;;1.80;;
4210;SDS011;2119;48.828;12.396;2023-03-23T13:10:23;3.30;;;2.20;;
4210;SDS011;2119;48.828;12.396;2023-03-23T13:30:53;2.27;;;2.07;;
4210;SDS011;2119;48.828;12.396;2023-03-23T13:35:54;2.20;;;2.10;;
4210;SDS011;2119;48.828;12.396;2023-03-23T13:40:55;3.20;;;3.00;;
4210;SDS011;2119;48.828;12.396;2023-03-23T13:46:06;4.00;;;2.27;;
4210;SDS011;2119;48.828;12.396;2023-03-23T13:51:21;3.20;;;2.20;;
4210;SDS011;2119;48.828;12.396;2023-03-23T13:56:36;3.00;;;2.80;;
4210;SDS011;2119;48.828;12.396;2023-03-23T14:01:40;2.33;;;1.80;;
4210;SDS011;2119;48.828;12.396;2023-03-23T14:06:41;2.77;;;2.57;;
4210;SDS011;2119;48.828;12.396;2023-03-23T14:11:45;2.50;;;2.30;;
4210;SDS011;2119;48.828;12.396;2023-03-23T14:16:50;2.10;;;1.90;;
4210;SDS011;2119;48.828;12.396;2023-03-23T14:21:55;2.10;;;1.93;;
4210;SDS011;2119;48.828;12.396;2023-03-23T14:32:06;2.17;;;2.00;;
4210;SDS011;2119;48.828;12.396;2023-03-23T14:37:09;2.20;;;2.00;;
4210;SDS011;2119;48.828;12.396;2023-03-23T14:42:13;2.03;;;1.90;;
4210;SDS011;2119;48.828;12.396;2023-03-23T14:47:16;1.93;;;1.80;;
4210;SDS011;2119;48.828;12.396;2023-03-23T14:52:21;2.40;;;2.30;;
4210;SDS011;2119;48.828;12.396;2023-03-23T15:07:26;2.37;;;2.17;;
4210;SDS011;2119;48.828;12.396;2023-03-23T15:12:27;3.20;;;2.90;;
4210;SDS011;2119;48.828;12.396;2023-03-23T15:17:30;4.43;;;4.00;;
4210;SDS011;2119;48.828;12.396;2023-03-23T15:22:31;2.80;;;2.60;;
4210;SDS011;2119;48.828;12.396;2023-03-23T15:27:32;2.73;;;2.53;;
4210;SDS011;2119;48.828;12.396;2023-03-23T15:32:40;2.40;;;2.20;;
4210;SDS011;2119;48.828;12.396;2023-03-23T15:37:45;2.97;;;2.20;;
4210;SDS011;2119;48.828;12.396;2023-03-23T15:42:46;3.03;;;2.10;;
4210;SDS011;2119;48.828;12.396;2023-03-23T15:47:48;2.30;;;2.10;;
4210;SDS011;2119;48.828;12.396;2023-03-23T15:52:48;3.83;;;2.10;;
4210;SDS011;2119;48.828;12.396;2023-03-23T15:57:49;2.53;;;2.00;;
4210;SDS011;2119;48.828;12.396;2023-03-23T16:02:52;2.10;;;2.00;;
4210;SDS011;2119;48.828;12.396;2023-03-23T16:07:53;4.53;;;4.23;;
4210;SDS011;2119;48.828;12.396;2023-03-23T16:12:53;3.53;;;3.23;;
4210;SDS011;2119;48.828;12.396;2023-03-23T16:17:54;4.07;;;3.30;;
4210;SDS011;2119;48.828;12.396;2023-03-23T16:22:54;7.63;;;4.63;;
4210;SDS011;2119;48.828;12.396;2023-03-23T16:27:56;3.50;;;3.20;;
4210;SDS011;2119;48.828;12.396;2023-03-23T16:32:56;11.50;;;7.53;;
4210;SDS011;2119;48.828;12.396;2023-03-23T16:37:57;8.07;;;7.37;;
4210;SDS011;2119;48.828;12.396;2023-03-23T16:42:57;5.50;;;4.97;;
4210;SDS011;2119;48.828;12.396;2023-03-23T16:47:57;3.80;;;3.10;;
4210;SDS011;2119;48.828;12.396;2023-03-23T16:53:00;4.77;;;4.37;;
4210;SDS011;2119;48.828;12.396;2023-03-23T16:58:01;7.50;;;6.40;;
4210;SDS011;2119;48.828;12.396;2023-03-23T17:03:01;13.07;;;9.13;;
4210;SDS011;2119;48.828;12.396;2023-03-23T17:08:02;9.95;;;8.95;;
4210;SDS011;2119;48.828;12.396;2023-03-23T17:13:03;5.53;;;5.00;;
4210;SDS011;2119;48.828;12.396;2023-03-23T17:18:03;8.55;;;5.03;;
4210;SDS011;2119;48.828;12.396;2023-03-23T17:23:03;5.30;;;4.80;;
4210;SDS011;2119;48.828;12.396;2023-03-23T17:28:04;15.82;;;6.38;;
4210;SDS011;2119;48.828;12.396;2023-03-23T17:33:05;7.20;;;4.70;;
4210;SDS011;2119;48.828;12.396;2023-03-23T17:38:05;4.10;;;3.80;;
4210;SDS011;2119;48.828;12.396;2023-03-23T17:48:45;6.53;;;5.90;;
4210;SDS011;2119;48.828;12.396;2023-03-23T17:53:45;15.73;;;10.77;;
4210;SDS011;2119;48.828;12.396;2023-03-23T17:58:45;15.40;;;12.02;;
4210;SDS011;2119;48.828;12.396;2023-03-23T18:03:45;14.40;;;10.70;;
4210;SDS011;2119;48.828;12.396;2023-03-23T18:08:46;12.00;;;9.15;;
4210;SDS011;2119;48.828;12.396;2023-03-23T18:13:46;16.60;;;12.18;;
4210;SDS011;2119;48.828;12.396;2023-03-23T18:18:46;11.40;;;9.90;;
4210;SDS011;2119;48.828;12.396;2023-03-23T18:23:47;15.10;;;13.43;;
4210;SDS011;2119;48.828;12.396;2023-03-23T18:28:49;13.60;;;12.30;;
4210;SDS011;2119;48.828;12.396;2023-03-23T18:33:50;7.13;;;6.53;;
4210;SDS011;2119;48.828;12.396;2023-03-23T18:38:54;6.80;;;6.10;;
4210;SDS011;2119;48.828;12.396;2023-03-23T18:43:54;7.27;;;6.23;;
4210;SDS011;2119;48.828;12.396;2023-03-23T18:48:55;7.03;;;6.33;;
4210;SDS011;2119;48.828;12.396;2023-03-23T18:53:55;7.35;;;6.70;;
4210;SDS011;2119;48.828;12.396;2023-03-23T18:58:56;7.73;;;6.93;;
4210;SDS011;2119;48.828;12.396;2023-03-23T19:03:56;9.97;;;7.27;;
4210;SDS011;2119;48.828;12.396;2023-03-23T19:08:56;9.47;;;6.67;;
4210;SDS011;2119;48.828;12.396;2023-03-23T19:13:58;14.07;;;5.47;;
4210;SDS011;2119;48.828;12.396;2023-03-23T19:18:59;6.50;;;5.37;;
4210;SDS011;2119;48.828;12.396;2023-03-23T19:24:00;5.83;;;5.30;;
4210;SDS011;2119;48.828;12.396;2023-03-23T19:29:01;5.70;;;5.20;;
4210;SDS011;2119;48.828;12.396;2023-03-23T19:34:01;5.50;;;5.03;;
4210;SDS011;2119;48.828;12.396;2023-03-23T19:39:02;5.13;;;4.72;;
4210;SDS011;2119;48.828;12.396;2023-03-23T19:44:04;4.40;;;4.00;;
4210;SDS011;2119;48.828;12.396;2023-03-23T19:49:04;4.30;;;3.90;;
4210;SDS011;2119;48.828;12.396;2023-03-23T19:54:05;4.87;;;4.47;;
4210;SDS011;2119;48.828;12.396;2023-03-23T19:59:07;5.53;;;4.43;;
4210;SDS011;2119;48.828;12.396;2023-03-23T20:04:09;4.10;;;3.80;;
4210;SDS011;2119;48.828;12.396;2023-03-23T20:09:10;4.00;;;3.73;;
4210;SDS011;2119;48.828;12.396;2023-03-23T20:14:10;4.07;;;3.70;;
4210;SDS011;2119;48.828;12.396;2023-03-23T20:19:11;4.23;;;3.93;;
4210;SDS011;2119;48.828;12.396;2023-03-23T20:24:11;3.70;;;3.40;;
4210;SDS011;2119;48.828;12.396;2023-03-23T20:29:11;3.50;;;3.30;;
4210;SDS011;2119;48.828;12.396;2023-03-23T20:34:13;4.63;;;4.23;;
4210;SDS011;2119;48.828;12.396;2023-03-23T20:39:16;4.07;;;3.40;;
4210;SDS011;2119;48.828;12.396;2023-03-23T20:44:21;4.70;;;4.40;;
4210;SDS011;2119;48.828;12.396;2023-03-23T20:49:24;3.97;;;3.67;;
4210;SDS011;2119;48.828;12.396;2023-03-23T20:54:25;4.22;;;3.90;;
4210;SDS011;2119;48.828;12.396;2023-03-23T20:59:25;4.20;;;3.90;;
4210;SDS011;2119;48.828;12.396;2023-03-23T21:04:26;4.07;;;3.77;;
4210;SDS011;2119;48.828;12.396;2023-03-23T21:09:26;6.10;;;5.55;;
4210;SDS011;2119;48.828;12.396;2023-03-23T21:14:26;4.90;;;4.40;;
4210;SDS011;2119;48.828;12.396;2023-03-23T21:19:27;9.23;;;7.93;;
4210;SDS011;2119;48.828;12.396;2023-03-23T21:24:29;12.73;;;9.13;;
4210;SDS011;2119;48.828;12.396;2023-03-23T21:29:29;10.57;;;9.47;;
4210;SDS011;2119;48.828;12.396;2023-03-23T21:34:30;5.87;;;5.37;;
4210;SDS011;2119;48.828;12.396;2023-03-23T21:39:30;3.93;;;3.63;;
4210;SDS011;2119;48.828;12.396;2023-03-23T21:44:30;3.72;;;3.00;;
4210;SDS011;2119;48.828;12.396;2023-03-23T21:49:33;4.30;;;4.00;;
4210;SDS011;2119;48.828;12.396;2023-03-23T21:54:34;4.63;;;4.23;;
4210;SDS011;2119;48.828;12.396;2023-03-23T21:59:35;5.20;;;3.65;;
4210;SDS011;2119;48.828;12.396;2023-03-23T22:04:35;3.65;;;3.35;;
4210;SDS011;2119;48.828;12.396;2023-03-23T22:09:35;3.27;;;3.07;;
4210;SDS011;2119;48.828;12.396;2023-03-23T22:14:36;3.37;;;3.07;;
4210;SDS011;2119;48.828;12.396;2023-03-23T22:19:36;3.30;;;3.10;;
4210;SDS011;2119;48.828;12.396;2023-03-23T22:24:39;2.90;;;2.70;;
4210;SDS011;2119;48.828;12.396;2023-03-23T22:29:39;3.57;;;3.27;;
4210;SDS011;2119;48.828;12.396;2023-03-23T22:34:40;3.30;;;3.10;;
4210;SDS011;2119;48.828;12.396;2023-03-23T22:39:40;3.60;;;3.40;;
4210;SDS011;2119;48.828;12.396;2023-03-23T22:44:41;3.23;;;3.03;;
4210;SDS011;2119;48.828;12.396;2023-03-23T22:49:41;3.17;;;2.97;;
4210;SDS011;2119;48.828;12.396;2023-03-23T22:54:42;4.20;;;3.20;;
4210;SDS011;2119;48.828;12.396;2023-03-23T22:59:42;3.60;;;3.30;;
4210;SDS011;2119;48.828;12.396;2023-03-23T23:04:45;3.00;;;2.80;;
4210;SDS011;2119;48.828;12.396;2023-03-23T23:09:46;3.60;;;3.40;;
4210;SDS011;2119;48.828;12.396;2023-03-23T23:14:46;5.88;;;3.42;;
4210;SDS011;2119;48.828;12.396;2023-03-23T23:19:46;3.47;;;3.17;;
4210;SDS011;2119;48.828;12.396;2023-03-23T23:24:47;3.03;;;2.83;;
4210;SDS011;2119;48.828;12.396;2023-03-23T23:29:47;3.63;;;3.33;;
4210;SDS011;2119;48.828;12.396;2023-03-23T23:34:47;3.17;;;2.97;;
4210;SDS011;2119;48.828;12.396;2023-03-23T23:39:48;2.90;;;2.70;;
4210;SDS011;2119;48.828;12.396;2023-03-23T23:44:48;3.07;;;2.80;;
4210;SDS011;2119;48.828;12.396;2023-03-23T23:49:48;3.80;;;3.00;;
4210;SDS011;2119;48.828;12.396;2023-03-23T23:54:49;3.43;;;3.13;;
4210;SDS011;2119;48.828;12.396;2023-03-23T23:59:50;3.80;;;3.50;;
